Time;durP1;ratioP1;P1;durP2;ratioP2;P2;SDS_P1;SDS_P2;PMS_P1;PMS_P2;Temp;Humidity;BMP_temperature;BMP_pressure;BME280_temperature;BME280_humidity;BME280_pressure;Samples;Min_cycle;Max_cycle;Signal;HPM_P1;HPM_P2
2022/05/01 00:01:38;;;;;;;6.70;4.03;;;;;;;19.29;57.37;100877.44;5092591;28;20247;-60
2022/05/01 00:04:04;;;;;;;7.20;4.10;;;;;;;19.28;57.34;100875.78;5092616;28;20541;-60
2022/05/01 00:06:33;;;;;;;9.20;4.00;;;;;;;19.30;57.25;100875.38;5092338;28;20198;-59
2022/05/01 00:08:58;;;;;;;5.43;3.90;;;;;;;19.27;57.12;100871.22;5092025;28;20225;-60
2022/05/01 00:11:24;;;;;;;6.57;4.00;;;;;;;19.26;57.59;100865.91;5092388;28;20409;-63
2022/05/01 00:13:50;;;;;;;9.57;4.10;;;;;;;19.26;57.13;100860.97;5092175;28;20189;-61
2022/05/01 00:16:15;;;;;;;9.50;5.23;;;;;;;19.26;57.32;100869.56;5092312;28;20182;-60
2022/05/01 00:18:41;;;;;;;5.33;3.73;;;;;;;19.25;57.40;100873.63;5085259;28;20178;-60
2022/05/01 00:21:06;;;;;;;9.37;4.83;;;;;;;19.26;57.52;100877.34;5082363;28;20171;-60
2022/05/01 00:23:32;;;;;;;7.67;4.30;;;;;;;19.25;57.34;100862.19;5071653;28;20630;-59
2022/05/01 00:25:58;;;;;;;6.40;4.20;;;;;;;19.25;57.19;100872.78;5071836;28;20194;-60
2022/05/01 00:28:23;;;;;;;7.03;4.00;;;;;;;19.22;57.34;100868.66;5071851;28;20205;-60
2022/05/01 00:30:49;;;;;;;12.23;4.10;;;;;;;19.24;57.40;100869.13;5071977;28;20425;-60
2022/05/01 00:38:42;;;;;;;6.27;3.60;;;;;;;19.23;57.30;100866.63;5071831;28;20500;-60
2022/05/01 00:41:08;;;;;;;7.83;4.43;;;;;;;19.23;57.34;100860.91;5071521;28;20425;-60
2022/05/01 00:44:08;;;;;;;11.57;4.50;;;;;;;19.24;57.46;100866.25;5071754;28;20553;-61
2022/05/01 00:46:35;;;;;;;5.20;3.63;;;;;;;19.21;57.34;100858.38;5071227;28;20468;-60
2022/05/01 00:49:02;;;;;;;6.97;3.80;;;;;;;19.20;57.29;100862.44;5071823;28;20413;-60
2022/05/01 00:51:33;;;;;;;7.83;4.30;;;;;;;19.20;57.59;100853.84;5075799;28;20416;-60
2022/05/01 00:53:59;;;;;;;7.63;3.60;;;;;;;19.21;57.28;100858.38;5091801;28;20533;-60
2022/05/01 00:56:24;;;;;;;5.20;3.50;;;;;;;19.22;57.30;100860.06;5073573;28;20429;-60
2022/05/01 00:58:50;;;;;;;4.83;3.80;;;;;;;19.21;57.46;100846.91;5073493;28;20255;-60
2022/05/01 01:01:15;;;;;;;4.90;3.63;;;;;;;19.20;57.27;100851.00;5080868;28;20189;-60
2022/05/01 01:03:41;;;;;;;5.20;3.40;;;;;;;19.21;57.27;100854.69;5071485;28;20545;-60
2022/05/01 01:06:06;;;;;;;5.87;3.53;;;;;;;19.21;57.37;100855.50;5053475;28;20207;-60
2022/05/01 01:08:32;;;;;;;4.83;3.60;;;;;;;19.23;57.40;100844.56;5071361;28;20226;-60
2022/05/01 01:10:57;;;;;;;6.77;4.37;;;;;;;19.21;57.65;100846.09;5053529;28;20175;-60
2022/05/01 01:13:29;;;;;;;8.57;3.60;;;;;;;19.19;57.38;100843.63;5071228;28;20167;-60
2022/05/01 01:15:55;;;;;;;6.30;3.97;;;;;;;19.20;57.46;100845.28;5087408;28;20186;-60
2022/05/01 01:18:21;;;;;;;5.50;3.47;;;;;;;19.18;57.48;100841.97;5091765;28;20442;-61
2022/05/01 01:20:47;;;;;;;7.67;4.13;;;;;;;19.19;57.64;100846.47;5089731;28;20435;-60
2022/05/01 01:23:12;;;;;;;5.30;3.07;;;;;;;19.18;57.45;100841.97;5072553;28;20430;-60
2022/05/01 01:25:38;;;;;;;4.60;3.50;;;;;;;19.20;57.44;100848.13;5073672;28;20203;-60
2022/05/01 01:28:05;;;;;;;7.80;4.13;;;;;;;19.19;57.35;100840.75;5053131;28;20190;-60
2022/05/01 01:33:18;;;;;;;4.53;3.50;;;;;;;19.19;57.52;100837.03;5071283;28;20448;-60
2022/05/01 01:35:44;;;;;;;4.90;3.20;;;;;;;19.20;57.49;100835.84;5071438;28;20441;-60
2022/05/01 01:38:09;;;;;;;7.00;3.93;;;;;;;19.18;57.67;100839.09;5071261;28;20171;-60
2022/05/01 01:40:38;;;;;;;9.97;3.60;;;;;;;19.19;57.32;100843.63;5071052;28;20455;-60
2022/05/01 01:43:04;;;;;;;7.23;3.67;;;;;;;19.18;57.59;100839.09;5070991;28;20186;-60
2022/05/01 01:45:30;;;;;;;6.30;3.97;;;;;;;19.17;57.56;100834.53;5083504;28;20488;-60
2022/05/01 01:47:57;;;;;;;5.57;3.60;;;;;;;19.17;57.97;100834.53;5090822;28;20443;-60
2022/05/01 01:50:24;;;;;;;5.97;3.53;;;;;;;19.19;57.65;100837.03;5073827;28;20171;-60
2022/05/01 01:52:49;;;;;;;4.60;3.40;;;;;;;19.18;57.49;100826.81;5092915;28;20442;-60
2022/05/01 01:55:15;;;;;;;6.17;3.90;;;;;;;19.16;57.39;100823.50;5094478;28;20412;-60
2022/05/01 01:57:41;;;;;;;9.87;3.83;;;;;;;19.19;57.17;100831.31;5095003;28;20178;-60
2022/05/01 02:00:07;;;;;;;11.40;3.73;;;;;;;19.18;57.58;100829.66;5094761;28;20453;-60
2022/05/01 02:02:33;;;;;;;7.40;3.93;;;;;;;19.17;57.63;100825.16;5094642;28;20205;-60
2022/05/01 02:04:58;;;;;;;6.73;3.43;;;;;;;19.17;57.82;100828.00;5094450;28;20416;-60
2022/05/01 02:07:24;;;;;;;4.40;3.40;;;;;;;19.17;57.64;100831.69;5094665;28;20237;-60
2022/05/01 02:09:49;;;;;;;5.33;3.30;;;;;;;19.17;57.58;100825.16;5094435;28;20637;-60
2022/05/01 02:12:14;;;;;;;5.93;3.90;;;;;;;19.17;57.68;100825.16;5094640;28;20170;-60
2022/05/01 02:14:41;;;;;;;6.70;3.40;;;;;;;19.17;57.79;100825.97;5094703;28;20178;-60
2022/05/01 02:17:07;;;;;;;5.40;3.43;;;;;;;19.16;57.64;100823.50;5094751;28;20170;-60
2022/05/01 02:19:32;;;;;;;6.67;3.57;;;;;;;19.16;57.35;100824.31;5093928;28;20919;-60
2022/05/01 02:21:58;;;;;;;6.10;3.67;;;;;;;19.16;57.54;100823.50;5091867;28;20174;-60
2022/05/01 02:24:25;;;;;;;5.43;3.90;;;;;;;19.15;57.49;100821.81;5091476;28;20178;-60
2022/05/01 02:26:50;;;;;;;4.10;2.70;;;;;;;19.15;57.64;100822.66;5073971;28;20212;-59
2022/05/01 02:29:16;;;;;;;5.37;3.07;;;;;;;19.17;57.72;100819.44;5074082;28;20402;-60
2022/05/01 02:31:42;;;;;;;4.80;3.10;;;;;;;19.17;57.85;100819.44;5074028;28;20182;-60
2022/05/01 02:34:08;;;;;;;5.30;3.10;;;;;;;19.16;57.53;100821.44;5074010;28;20171;-60
2022/05/01 02:36:34;;;;;;;4.87;3.47;;;;;;;19.17;57.48;100823.09;5074336;28;20892;-60
2022/05/01 02:38:59;;;;;;;8.27;3.60;;;;;;;19.17;57.58;100816.56;5073647;28;20441;-60
2022/05/01 02:41:25;;;;;;;5.27;3.23;;;;;;;19.16;57.46;100818.59;5073724;28;20171;-60
2022/05/01 02:43:51;;;;;;;5.23;3.43;;;;;;;19.15;57.55;100816.09;5073859;28;20181;-60
2022/05/01 02:46:16;;;;;;;4.87;2.83;;;;;;;19.14;57.56;100817.28;5092429;28;20905;-60
2022/05/01 02:48:43;;;;;;;5.63;3.60;;;;;;;19.18;57.40;100813.34;5093828;28;20178;-60
2022/05/01 02:51:08;;;;;;;6.43;3.50;;;;;;;19.17;57.49;100811.66;5093798;28;20170;-60
2022/05/01 02:53:34;;;;;;;5.47;3.40;;;;;;;19.18;57.56;100812.50;5092932;28;20453;-60
2022/05/01 02:56:02;;;;;;;6.07;3.27;;;;;;;19.16;57.49;100810.00;5076073;28;20175;-59
2022/05/01 02:58:28;;;;;;;4.47;3.30;;;;;;;19.15;57.62;100801.78;5056198;28;20258;-60
2022/05/01 03:00:53;;;;;;;5.60;3.53;;;;;;;19.15;57.74;100804.63;5055291;28;20568;-60
2022/05/01 03:03:19;;;;;;;8.30;3.20;;;;;;;19.14;57.77;100800.13;5056015;28;20425;-60
2022/05/01 03:05:45;;;;;;;4.30;2.93;;;;;;;19.16;57.59;100798.56;5073328;28;20290;-60
2022/05/01 03:08:12;;;;;;;5.60;3.40;;;;;;;19.15;58.22;100799.75;5073224;28;20231;-60
2022/05/01 03:10:38;;;;;;;5.07;3.27;;;;;;;19.16;57.45;100803.47;5073377;28;20175;-60
2022/05/01 03:13:04;;;;;;;3.83;2.90;;;;;;;19.14;57.77;100795.25;5073348;28;20417;-60
2022/05/01 03:15:29;;;;;;;4.40;3.40;;;;;;;19.16;57.46;100792.00;5085533;28;20430;-60
2022/05/01 03:23:23;;;;;;;4.27;3.00;;;;;;;19.15;57.63;100787.47;5073122;28;20416;-61
2022/05/01 03:25:48;;;;;;;5.13;3.57;;;;;;;19.14;57.65;100778.06;5072773;28;20445;-60
2022/05/01 03:28:13;;;;;;;3.80;2.90;;;;;;;19.13;58.26;100787.03;5073167;28;20194;-60
2022/05/01 03:30:39;;;;;;;5.40;3.13;;;;;;;19.14;57.67;100778.06;5072878;28;20697;-60
2022/05/01 03:33:07;;;;;;;4.57;2.87;;;;;;;19.14;57.88;100788.69;5075513;28;20221;-60
2022/05/01 03:35:35;;;;;;;4.40;2.77;;;;;;;19.15;57.51;100778.88;5072703;28;20182;-60
2022/05/01 03:38:04;;;;;;;5.40;2.73;;;;;;;19.15;57.85;100779.72;5071383;28;20413;-60
2022/05/01 03:40:30;;;;;;;4.63;3.43;;;;;;;19.14;57.56;100775.22;5054649;28;20455;-61
2022/05/01 03:42:55;;;;;;;4.40;2.90;;;;;;;19.14;57.45;100778.06;5072682;28;20402;-60
2022/05/01 03:45:20;;;;;;;5.00;2.90;;;;;;;19.13;57.75;100776.41;5083672;28;20217;-60
2022/05/01 03:47:46;;;;;;;4.00;2.97;;;;;;;19.12;57.78;100786.19;5092679;28;20170;-60
2022/05/01 03:50:11;;;;;;;4.10;3.00;;;;;;;19.13;57.55;100785.00;5092365;28;20621;-60
2022/05/01 03:52:37;;;;;;;4.73;3.03;;;;;;;19.14;57.62;100788.69;5093030;28;20182;-60
2022/05/01 03:55:03;;;;;;;6.60;3.00;;;;;;;19.13;57.84;100770.69;5074456;28;20190;-60
2022/05/01 03:57:28;;;;;;;4.00;3.40;;;;;;;19.13;57.72;100784.16;5092566;28;20658;-60
2022/05/01 03:59:54;;;;;;;4.63;2.90;;;;;;;19.13;57.74;100792.75;5092804;28;20170;-60
2022/05/01 04:02:19;;;;;;;4.87;3.10;;;;;;;19.13;57.95;100776.41;5074211;28;20606;-60
2022/05/01 04:04:46;;;;;;;3.73;2.90;;;;;;;19.13;57.95;100776.41;5092671;28;20174;-60
2022/05/01 04:07:12;;;;;;;3.47;2.63;;;;;;;19.14;57.66;100780.09;5092113;28;20202;-60
2022/05/01 04:09:37;;;;;;;4.70;3.00;;;;;;;19.15;57.75;100778.88;5092212;28;20425;-60
2022/05/01 04:12:06;;;;;;;4.53;3.10;;;;;;;19.13;57.74;100776.41;5092565;28;20174;-60
2022/05/01 04:14:32;;;;;;;5.03;2.90;;;;;;;19.13;57.94;100787.03;5091797;28;20196;-60
2022/05/01 04:16:59;;;;;;;4.70;2.97;;;;;;;19.14;57.87;100778.06;5073839;28;20419;-60
2022/05/01 04:19:25;;;;;;;3.63;2.67;;;;;;;19.15;57.66;100778.88;5089346;28;20436;-60
2022/05/01 04:21:50;;;;;;;5.23;3.00;;;;;;;19.15;57.75;100785.44;5071846;28;20758;-60
2022/05/01 04:24:16;;;;;;;3.57;2.63;;;;;;;19.14;57.67;100786.66;5072027;28;20439;-60
2022/05/01 04:26:41;;;;;;;4.37;2.73;;;;;;;19.15;57.95;100778.88;5071708;28;20194;-60
2022/05/01 04:31:51;;;;;;;5.47;3.30;;;;;;;19.13;57.72;100789.88;5092066;28;20184;-60
2022/05/01 04:34:17;;;;;;;3.70;2.70;;;;;;;19.15;57.54;100794.03;5084381;28;20928;-60
2022/05/01 04:36:43;;;;;;;6.30;2.90;;;;;;;19.16;57.54;100794.88;5069087;28;20500;-60
2022/05/01 04:39:08;;;;;;;8.27;3.10;;;;;;;19.17;57.18;100787.94;5070100;28;20171;-60
2022/05/01 04:41:34;;;;;;;4.30;2.57;;;;;;;19.13;57.75;100785.00;5070231;28;20429;-60
2022/05/01 04:43:59;;;;;;;3.90;2.60;;;;;;;19.14;57.84;100788.69;5071136;28;20179;-60
2022/05/01 04:46:25;;;;;;;3.97;2.87;;;;;;;19.13;57.67;100787.88;5071205;28;20206;-60
2022/05/01 04:48:50;;;;;;;3.90;2.70;;;;;;;19.14;57.79;100794.41;5071784;28;20597;-60
2022/05/01 04:51:16;;;;;;;3.77;2.70;;;;;;;19.14;57.47;100800.97;5076341;28;20182;-60
2022/05/01 04:53:41;;;;;;;4.10;2.87;;;;;;;19.16;57.57;100795.69;5092001;28;20166;-61
2022/05/01 04:58:51;;;;;;;4.57;2.87;;;;;;;19.14;57.61;100800.13;5092017;28;20247;-60
2022/05/01 05:01:17;;;;;;;4.90;3.20;;;;;;;19.16;57.49;100804.28;5091572;28;20412;-60
2022/05/01 05:03:43;;;;;;;4.17;2.77;;;;;;;19.14;57.52;100805.84;5091124;28;20236;-60
2022/05/01 05:06:08;;;;;;;3.93;2.97;;;;;;;19.13;57.44;100807.91;5091392;28;20444;-61
2022/05/01 05:11:18;;;;;;;4.17;2.80;;;;;;;19.12;57.34;100809.06;5091472;28;20538;-60
2022/05/01 05:13:43;;;;;;;3.80;2.83;;;;;;;19.13;57.63;100807.06;5091654;28;20413;-60
2022/05/01 05:16:13;;;;;;;3.50;2.67;;;;;;;19.14;57.79;100805.84;5091400;28;20177;-60
2022/05/01 05:18:40;;;;;;;5.27;2.97;;;;;;;19.14;58.10;100818.13;5091766;28;20166;-60
2022/05/01 05:21:05;;;;;;;4.10;2.50;;;;;;;19.12;57.63;100814.81;5091194;28;20412;-60
2022/05/01 05:23:31;;;;;;;3.97;2.73;;;;;;;19.13;57.64;100815.66;5091361;28;20844;-60
2022/05/01 05:25:56;;;;;;;4.50;2.70;;;;;;;19.12;57.73;100814.81;5091427;28;20277;-59
2022/05/01 05:28:22;;;;;;;3.67;2.77;;;;;;;19.14;57.59;100817.28;5080420;28;20171;-58
2022/05/01 05:30:48;;;;;;;4.23;2.73;;;;;;;19.13;57.47;100813.63;5058744;28;20520;-60
2022/05/01 05:33:15;;;;;;;3.57;2.67;;;;;;;19.13;57.73;100813.63;5075270;28;20175;-60
2022/05/01 05:35:40;;;;;;;4.00;2.80;;;;;;;19.14;58.22;100823.03;5074974;28;20877;-60
2022/05/01 05:38:06;;;;;;;5.43;2.80;;;;;;;19.11;57.78;100818.88;5074914;28;20493;-60
2022/05/01 05:40:31;;;;;;;5.07;2.57;;;;;;;19.12;57.73;100814.81;5075060;28;20627;-60
2022/05/01 05:42:57;;;;;;;4.60;2.70;;;;;;;19.13;57.62;100816.50;5075032;28;20523;-59
2022/05/01 05:45:22;;;;;;;3.30;2.70;;;;;;;19.14;57.71;100812.41;5075313;28;20167;-60
2022/05/01 05:47:55;;;;;;;3.10;2.37;;;;;;;19.14;57.58;100812.41;5074809;28;20652;-61
2022/05/01 05:50:21;;;;;;;3.60;2.90;;;;;;;19.13;57.64;100822.22;5074908;28;20167;-60
2022/05/01 05:52:46;;;;;;;4.13;2.80;;;;;;;19.14;57.71;100831.59;5092340;28;20536;-60
2022/05/01 05:55:12;;;;;;;3.83;2.60;;;;;;;19.12;57.76;100825.44;5095253;28;20637;-60
2022/05/01 05:57:37;;;;;;;4.30;2.83;;;;;;;19.13;57.68;100830.81;5095052;28;20151;-60
2022/05/01 06:00:04;;;;;;;3.83;2.40;;;;;;;19.15;58.10;100827.53;5094965;28;20540;-59
2022/05/01 06:02:29;;;;;;;3.47;2.63;;;;;;;19.14;57.65;100832.44;5094688;28;20205;-60
2022/05/01 06:04:54;;;;;;;5.30;3.03;;;;;;;19.14;57.67;100832.44;5094936;28;20431;-60
2022/05/01 06:07:20;;;;;;;3.23;2.30;;;;;;;19.13;57.46;100833.66;5094384;28;20226;-60
2022/05/01 06:09:45;;;;;;;3.13;2.20;;;;;;;19.13;57.48;100830.81;5094924;28;20174;-60
2022/05/01 06:12:11;;;;;;;3.80;2.83;;;;;;;19.14;57.64;100826.72;5094749;28;20179;-60
2022/05/01 06:14:36;;;;;;;3.30;2.40;;;;;;;19.15;57.71;100827.53;5094924;28;20259;-60
2022/05/01 06:17:02;;;;;;;4.20;2.93;;;;;;;19.12;57.57;100831.16;5094395;28;20166;-60
2022/05/01 06:19:27;;;;;;;4.23;2.63;;;;;;;19.13;57.53;100825.06;5094290;28;20170;-60
2022/05/01 06:21:53;;;;;;;4.47;3.00;;;;;;;19.11;57.68;100824.59;5094176;28;20174;-60
2022/05/01 06:24:18;;;;;;;5.23;2.60;;;;;;;19.16;57.61;100827.16;5094738;28;20189;-60
2022/05/01 06:26:43;;;;;;;3.60;2.60;;;;;;;19.15;57.69;100831.25;5094151;28;20194;-60
2022/05/01 06:29:09;;;;;;;3.40;2.70;;;;;;;19.12;57.59;100840.56;5092742;28;20166;-59
2022/05/01 06:31:37;;;;;;;5.00;2.70;;;;;;;19.11;57.54;100827.47;5074608;28;20171;-60
2022/05/01 06:34:03;;;;;;;4.03;3.20;;;;;;;19.13;58.00;100839.38;5077510;28;20558;-60
2022/05/01 06:36:28;;;;;;;4.43;2.87;;;;;;;19.10;57.65;100834.38;5075400;28;20413;-60
2022/05/01 06:38:54;;;;;;;3.87;2.70;;;;;;;19.12;57.69;100845.47;5093962;28;20166;-60
2022/05/01 06:41:19;;;;;;;3.50;2.63;;;;;;;19.11;57.97;100847.50;5093888;28;20202;-60
2022/05/01 06:43:45;;;;;;;3.30;2.13;;;;;;;19.13;57.83;100847.97;5094281;28;20602;-60
2022/05/01 06:46:10;;;;;;;4.10;2.97;;;;;;;19.13;57.54;100833.66;5080951;28;20207;-59
2022/05/01 06:48:36;;;;;;;3.70;2.83;;;;;;;19.14;57.63;100838.19;5074011;28;20175;-60
2022/05/01 06:51:01;;;;;;;4.43;2.77;;;;;;;19.12;57.67;100831.16;5073316;28;20544;-60
2022/05/01 06:53:27;;;;;;;3.03;2.33;;;;;;;19.10;57.63;100837.25;5080392;28;20212;-60
2022/05/01 06:55:53;;;;;;;3.13;2.30;;;;;;;19.10;57.66;100842.97;5093795;28;20502;-60
2022/05/01 06:58:19;;;;;;;3.60;2.33;;;;;;;19.13;57.58;100833.66;5094108;28;20574;-60
2022/05/01 07:00:45;;;;;;;3.90;2.60;;;;;;;19.10;57.63;100845.84;5093479;28;20496;-60
2022/05/01 07:03:11;;;;;;;3.90;2.23;;;;;;;19.13;57.84;100838.53;5093898;28;20178;-60
2022/05/01 07:05:36;;;;;;;3.23;2.63;;;;;;;19.12;57.36;100842.63;5093593;28;21008;-60
2022/05/01 07:08:02;;;;;;;3.20;2.10;;;;;;;19.10;57.67;100839.28;5093312;28;20222;-59
2022/05/01 07:10:27;;;;;;;3.53;2.13;;;;;;;19.12;57.66;100837.69;5093521;28;20167;-60
2022/05/01 07:12:53;;;;;;;3.17;2.47;;;;;;;19.11;57.43;100833.19;5093492;28;20151;-60
2022/05/01 07:15:18;;;;;;;2.90;2.10;;;;;;;19.12;57.50;100839.75;5093512;28;20254;-60
2022/05/01 07:17:44;;;;;;;2.80;2.40;;;;;;;19.11;57.54;100836.03;5089614;28;20170;-59
2022/05/01 07:20:10;;;;;;;4.13;3.10;;;;;;;19.12;57.76;100831.97;5073492;28;20167;-60
2022/05/01 07:22:35;;;;;;;3.70;2.27;;;;;;;19.13;57.57;100839.38;5073024;28;20216;-60
2022/05/01 07:25:01;;;;;;;3.20;2.10;;;;;;;19.14;57.70;100835.31;5071857;28;20176;-60
2022/05/01 07:27:26;;;;;;;3.30;2.33;;;;;;;19.13;57.52;100836.53;5071892;28;20209;-60
2022/05/01 07:29:52;;;;;;;3.60;2.80;;;;;;;19.13;57.56;100824.22;5073065;28;20222;-60
2022/05/01 07:32:17;;;;;;;3.20;2.20;;;;;;;19.15;57.58;100825.53;5072780;28;20160;-60
2022/05/01 07:34:43;;;;;;;5.30;2.63;;;;;;;19.17;57.40;100822.28;5085314;28;20222;-60
2022/05/01 07:37:08;;;;;;;3.53;2.40;;;;;;;19.16;57.67;100827.16;5093028;28;20167;-60
2022/05/01 07:39:34;;;;;;;2.90;2.43;;;;;;;19.13;57.55;100816.50;5089609;28;20245;-60
2022/05/01 07:41:59;;;;;;;3.43;2.70;;;;;;;19.16;57.57;100815.72;5092908;28;20170;-60
2022/05/01 07:44:25;;;;;;;3.33;2.10;;;;;;;19.16;57.57;100815.72;5092822;28;20174;-60
2022/05/01 07:46:51;;;;;;;4.93;2.70;;;;;;;19.16;57.39;100812.84;5092604;28;20688;-60
2022/05/01 07:49:17;;;;;;;9.40;2.20;;;;;;;19.17;57.68;100814.50;5092086;28;20204;-60
2022/05/01 07:51:42;;;;;;;3.17;2.03;;;;;;;19.16;57.37;100810.00;5092629;28;20436;-60
2022/05/01 07:54:07;;;;;;;3.33;2.10;;;;;;;19.18;57.85;100806.78;5092375;28;20210;-60
2022/05/01 07:56:33;;;;;;;2.87;2.13;;;;;;;19.20;57.42;100808.06;5091237;28;20251;-59
2022/05/01 07:58:59;;;;;;;3.07;2.33;;;;;;;19.19;57.51;100808.44;5092601;28;20177;-60
2022/05/01 08:01:24;;;;;;;3.70;2.43;;;;;;;19.20;57.53;100810.91;5092542;28;20414;-60
2022/05/01 08:06:35;;;;;;;2.90;1.83;;;;;;;19.23;57.43;100807.34;5092183;28;20394;-60
2022/05/01 08:09:00;;;;;;;2.90;2.30;;;;;;;19.21;57.45;100811.75;5092129;28;20464;-60
2022/05/01 08:11:26;;;;;;;3.90;2.47;;;;;;;19.21;57.03;100798.25;5091860;28;21033;-60
2022/05/01 08:13:51;;;;;;;3.67;2.57;;;;;;;19.22;57.44;100802.81;5092496;28;20593;-60
2022/05/01 08:16:17;;;;;;;2.97;2.10;;;;;;;19.23;57.45;100800.78;5092016;28;20170;-60
2022/05/01 08:21:31;;;;;;;3.50;1.90;;;;;;;19.20;57.39;100799.47;5091366;28;20177;-60
2022/05/01 08:23:56;;;;;;;6.37;2.27;;;;;;;19.21;57.32;100803.19;5092080;28;20393;-60
2022/05/01 08:26:23;;;;;;;3.53;2.23;;;;;;;19.21;57.67;100812.56;5073879;28;20839;-60
2022/05/01 08:28:51;;;;;;;2.97;2.33;;;;;;;19.19;57.52;100796.97;5092495;28;20510;-60
2022/05/01 08:31:16;;;;;;;4.00;2.37;;;;;;;19.19;57.40;100806.41;5088742;28;20417;-60
2022/05/01 08:33:42;;;;;;;3.80;2.33;;;;;;;19.19;57.32;100803.53;5079994;28;20408;-60
2022/05/01 08:36:07;;;;;;;2.70;2.30;;;;;;;19.20;57.49;100804.34;5091905;28;20224;-60
2022/05/01 08:38:35;;;;;;;4.27;2.20;;;;;;;19.20;57.24;100805.19;5091712;28;20167;-60
2022/05/01 08:41:01;;;;;;;3.90;2.20;;;;;;;19.21;57.48;100806.03;5091266;28;20163;-60
2022/05/01 08:43:27;;;;;;;4.13;2.17;;;;;;;19.17;57.84;100803.06;5067134;28;20416;-60
2022/05/01 08:45:52;;;;;;;6.60;2.10;;;;;;;19.18;57.45;100809.63;5072183;28;20199;-60
2022/05/01 08:48:59;;;;;;;2.10;1.80;;;;;;;19.18;57.52;100806.78;5070186;28;20700;-59
2022/05/01 08:51:25;;;;;;;3.03;1.83;;;;;;;19.15;57.56;100808.34;5052623;28;20190;-60
2022/05/01 08:53:51;;;;;;;3.63;2.00;;;;;;;19.17;57.54;100805.13;5035457;28;20440;-59
2022/05/01 08:56:17;;;;;;;3.40;2.30;;;;;;;19.18;57.72;100813.34;5070584;28;20535;-60
2022/05/01 08:58:42;;;;;;;3.17;2.10;;;;;;;19.18;57.60;100807.63;5053748;28;20182;-59
2022/05/01 09:01:08;;;;;;;3.13;2.07;;;;;;;19.19;57.65;100799.84;5071502;28;20410;-60
2022/05/01 09:03:34;;;;;;;2.80;1.90;;;;;;;19.17;57.53;100800.19;5073862;28;20164;-59
2022/05/01 09:05:59;;;;;;;2.50;2.00;;;;;;;19.16;57.77;100798.56;5091438;28;20194;-60
2022/05/01 09:08:26;;;;;;;3.20;2.20;;;;;;;19.17;57.74;100794.47;5091408;28;21228;-59
2022/05/01 09:10:51;;;;;;;2.90;2.20;;;;;;;19.18;57.55;100801.03;5091645;28;20265;-60
2022/05/01 09:13:23;;;;;;;2.90;2.37;;;;;;;19.14;57.75;100798.09;5091447;28;20393;-59
2022/05/01 09:15:48;;;;;;;3.60;2.30;;;;;;;19.16;57.69;100798.56;5074231;28;20187;-60
2022/05/01 09:18:18;;;;;;;2.93;2.40;;;;;;;19.17;57.42;100802.25;5091238;28;20789;-59
2022/05/01 09:21:07;;;;;;;3.33;2.60;;;;;;;19.17;57.62;100794.47;5091414;28;20166;-60
2022/05/01 09:23:45;;;;;;;3.50;2.30;;;;;;;19.15;57.55;100798.91;5091269;28;20475;-60
2022/05/01 09:26:16;;;;;;;3.20;2.53;;;;;;;19.16;57.61;100798.56;5090686;28;20982;-60
2022/05/01 09:28:49;;;;;;;4.57;2.40;;;;;;;19.14;57.67;100798.09;5073406;28;20480;-59
2022/05/01 09:31:15;;;;;;;4.10;2.00;;;;;;;19.15;57.45;100801.78;5071527;28;20401;-60
2022/05/01 09:33:40;;;;;;;3.10;2.10;;;;;;;19.14;57.61;100803.81;5074724;28;20424;-60
2022/05/01 09:36:06;;;;;;;2.80;2.30;;;;;;;19.15;57.63;100798.91;5091259;28;20171;-60
2022/05/01 09:38:32;;;;;;;3.67;2.30;;;;;;;19.16;57.82;100807.13;5091420;28;20167;-59
2022/05/01 09:41:00;;;;;;;4.17;2.50;;;;;;;19.14;57.71;100803.81;5091038;28;20422;-59
2022/05/01 09:43:31;;;;;;;4.60;2.20;;;;;;;19.15;57.76;100807.50;5091631;28;20179;-60
2022/05/01 09:46:12;;;;;;;3.20;2.10;;;;;;;19.15;57.86;100805.47;5082254;28;20480;-60
2022/05/01 09:48:38;;;;;;;3.50;1.97;;;;;;;19.14;57.55;100812.41;5071293;28;20405;-59
2022/05/01 09:51:16;;;;;;;3.03;2.30;;;;;;;19.13;57.66;100812.78;5076361;28;20995;-60
2022/05/01 09:53:45;;;;;;;2.70;2.00;;;;;;;19.15;57.64;100810.38;5090506;28;20652;-59
2022/05/01 09:56:10;;;;;;;3.10;2.27;;;;;;;19.14;57.72;100812.41;5090774;28;20408;-60
2022/05/01 09:58:40;;;;;;;4.40;2.40;;;;;;;19.14;57.60;100806.69;5091296;28;20452;-60
2022/05/01 10:01:15;;;;;;;3.43;2.30;;;;;;;19.13;57.66;100807.06;5090840;28;20179;-60
2022/05/01 10:03:47;;;;;;;3.77;2.20;;;;;;;19.13;57.57;100805.03;5091106;28;20914;-59
2022/05/01 10:06:15;;;;;;;2.47;1.80;;;;;;;19.14;57.52;100815.28;5090850;28;20484;-60
2022/05/01 10:08:42;;;;;;;3.33;2.40;;;;;;;19.13;57.71;100809.91;5090940;28;20503;-60
2022/05/01 10:11:08;;;;;;;2.83;1.97;;;;;;;19.12;57.83;100811.94;5090946;28;20416;-60
2022/05/01 10:13:34;;;;;;;2.70;1.70;;;;;;;19.13;57.68;100804.19;5093606;28;20827;-60
2022/05/01 10:16:00;;;;;;;2.77;2.07;;;;;;;19.12;57.62;100803.34;5094663;28;20201;-60
2022/05/01 10:18:25;;;;;;;3.10;2.33;;;;;;;19.14;57.56;100806.69;5094008;28;20416;-60
2022/05/01 10:20:51;;;;;;;2.60;1.80;;;;;;;19.12;57.78;100806.22;5094614;28;20465;-60
2022/05/01 10:23:17;;;;;;;2.90;2.30;;;;;;;19.14;57.52;100806.69;5087746;28;20167;-60
2022/05/01 10:25:53;;;;;;;3.17;2.40;;;;;;;19.14;57.67;100800.97;5074172;28;20467;-60
2022/05/01 10:28:39;;;;;;;2.90;2.17;;;;;;;19.12;57.87;100800.50;5074191;28;20216;-60
2022/05/01 10:34:21;;;;;;;3.27;1.80;;;;;;;19.17;57.81;100796.53;5080195;28;20838;-60
2022/05/01 10:37:18;;;;;;;2.57;1.73;;;;;;;19.16;57.51;100789.97;5094266;28;20557;-60
2022/05/01 10:39:43;;;;;;;4.03;2.30;;;;;;;19.16;57.71;100786.28;5075571;28;20416;-60
2022/05/01 10:42:09;;;;;;;4.27;2.50;;;;;;;19.19;57.32;100782.66;5075311;28;20413;-60
2022/05/01 10:44:36;;;;;;;2.83;2.00;;;;;;;19.16;57.54;100778.50;5081388;28;20546;-60
2022/05/01 10:47:35;;;;;;;2.40;2.00;;;;;;;19.16;57.55;100789.16;5073465;28;20207;-60
2022/05/01 10:50:05;;;;;;;3.30;2.40;;;;;;;19.18;57.46;100779.00;5072703;28;20480;-60
2022/05/01 10:52:31;;;;;;;3.13;2.20;;;;;;;19.18;57.73;100779.00;5072413;28;20437;-60
2022/05/01 10:55:03;;;;;;;3.87;2.17;;;;;;;19.16;57.45;100769.94;5055764;28;20420;-60
2022/05/01 10:57:30;;;;;;;3.60;2.40;;;;;;;19.16;57.59;100775.66;5073359;28;20170;-60
2022/05/01 11:00:06;;;;;;;3.00;2.03;;;;;;;19.17;57.48;100770.78;5073631;28;20844;-60
2022/05/01 11:02:42;;;;;;;2.87;2.33;;;;;;;19.21;57.28;100765.97;5073516;28;20972;-60
2022/05/01 11:05:11;;;;;;;2.97;2.03;;;;;;;19.21;57.48;100761.03;5089270;28;20424;-59
2022/05/01 11:07:39;;;;;;;3.30;2.03;;;;;;;19.19;57.44;100757.75;5093301;28;20476;-59
2022/05/01 11:10:06;;;;;;;2.80;2.20;;;;;;;19.19;57.47;100763.47;5075930;28;20456;-60
2022/05/01 11:12:33;;;;;;;3.10;2.47;;;;;;;19.18;57.52;100756.09;5093553;28;20803;-60
2022/05/01 11:15:00;;;;;;;2.70;1.90;;;;;;;19.19;57.82;100752.03;5075384;28;20417;-60
2022/05/01 11:17:42;;;;;;;2.83;2.07;;;;;;;19.23;57.43;100752.97;5093266;28;20427;-60
2022/05/01 11:20:19;;;;;;;3.10;2.37;;;;;;;19.20;57.50;100744.25;5093488;28;20777;-60
2022/05/01 11:22:47;;;;;;;2.93;1.87;;;;;;;19.20;57.45;100750.81;5093443;28;20412;-60
2022/05/01 11:25:31;;;;;;;2.60;2.30;;;;;;;19.23;57.51;100740.69;5091843;28;20772;-59
2022/05/01 11:27:57;;;;;;;3.10;2.23;;;;;;;19.20;57.49;100741.38;5093357;28;20399;-59
2022/05/01 11:30:29;;;;;;;2.50;1.80;;;;;;;19.19;57.57;100734.84;5086148;28;20426;-60
2022/05/01 11:33:08;;;;;;;2.60;2.07;;;;;;;19.20;57.77;100732.78;5073004;28;20183;-60
2022/05/01 11:36:00;;;;;;;2.67;1.63;;;;;;;19.20;57.47;100730.78;5091945;28;20435;-60
2022/05/01 11:38:50;;;;;;;3.00;2.10;;;;;;;19.21;57.66;100738.16;5089752;28;20404;-60
2022/05/01 11:41:17;;;;;;;2.60;1.90;;;;;;;19.21;57.47;100732.41;5092793;28;20782;-60
2022/05/01 11:43:42;;;;;;;3.60;2.27;;;;;;;19.20;57.66;100736.50;5057129;28;20911;-61
2022/05/01 11:46:17;;;;;;;2.80;2.17;;;;;;;19.20;57.55;100724.22;5092539;28;20476;-60
2022/05/01 11:48:42;;;;;;;2.70;2.00;;;;;;;19.20;57.38;100722.19;5093196;28;20176;-60
2022/05/01 11:51:08;;;;;;;2.93;1.90;;;;;;;19.21;57.64;100720.97;5074524;28;20420;-60
2022/05/01 11:53:33;;;;;;;3.07;2.00;;;;;;;19.23;57.47;100723.50;5092943;28;20182;-60
2022/05/01 12:04:29;;;;;;;2.97;2.03;;;;;;;19.21;57.79;100706.66;5090691;28;20443;-60